Nearby METAR Reports

 

KPBH - Phillips, Wisconsin, USA
Distance from station: SE 13mi, 21km
Updated: 03/28/2020 1:35pm
Overcast
Overcast
 Wind from ENE
Wind: ENE 9 mph , 15 km/h
Temperature: 45°F , 7°C
Wind Chill: 40°F , 4°C
Dew Point: 34°F , 1°C
Humidity: 66%
Barometer: 29.79 inHg , 1008.8 hPa
Clouds: Overcast
Visibility: 10 miles , 16 km
Cloud details: Overcast 3300 ft
2020/03/28 18:35 KPBH 281835Z AUTO 06008KT 10SM OVC033 07/01 A2979 RMK AO2 T00730014
KRCX - Ladysmith/Rusk, Wisconsin, USA
Distance from station: SW 29mi, 46km
Updated: 03/28/2020 1:15pm
Overcast
Overcast
 Wind from NE
Wind: NE 13 mph , 20 km/h
Temperature: 46°F , 8°C
Wind Chill: 40°F , 4°C
Dew Point: 37°F , 3°C
Humidity: 71%
Barometer: 29.78 inHg , 1008.5 hPa
Clouds: Overcast
Visibility: 10 miles , 16 km
Cloud details: Overcast 2900 ft
2020/03/28 18:15 KRCX 281815Z AUTO 05011KT 10SM OVC029 08/03 A2978 RMK AO2 T00820032
 
KD25 - Manitowish Water, Wisconsin, USA
Distance from station: ENE 41mi, 66km
Updated: 03/28/2020 1:15pm
Overcast
Overcast
 Wind from ENE
Wind: ENE 8 mph , 13 km/h
Temperature: 45°F , 7°C
Wind Chill: 41°F , 5°C
Dew Point: 30°F , -1°C
Humidity: 57%
Barometer: 29.82 inHg , 1009.8 hPa
Clouds: Overcast
Visibility: 10 miles , 16 km
Cloud details: Overcast 4000 ft
2020/03/28 18:15 KD25 281815Z AUTO 06007KT 10SM OVC040 07/M01 A2982 RMK AO2 T00651013
KHYR - Hayward, Wisconsin, USA
Distance from station: WNW 42mi, 68km
Updated: 03/28/2020 12:53pm
Overcast
Overcast
 Wind from NNE
Wind: NNE 15 mph , 24 km/h
Temperature: 46°F , 8°C
Wind Chill: 40°F , 4°C
Dew Point: 30°F , -1°C
Humidity: 53%
Barometer: 29.80 inHg , 1009.1 hPa
Clouds: Overcast
Visibility: 10 miles , 16 km
Cloud details: Overcast 4100 ft
2020/03/28 17:53 KHYR 281753Z AUTO 03013KT 10SM OVC041 08/M01 A2980 RMK AO2 SLP101 T00831006 10094 20017 58004
 
KARV - Minocqua/Woodruf, Wisconsin, USA
Distance from station: E 44mi, 71km
Updated: 03/28/2020 1:15pm
Overcast
Overcast
 Wind from E
Wind: E 7 mph , 11 km/h
Temperature: 46°F , 8°C
Wind Chill: 42°F , 6°C
Dew Point: 34°F , 1°C
Humidity: 62%
Barometer: 29.81 inHg , 1009.5 hPa
Clouds: Overcast
Visibility: 10 miles , 16 km
Cloud details: Overcast 3400 ft
2020/03/28 18:15 KARV 281815Z AUTO 09006KT 10SM OVC034 08/01 A2981 RMK AO2 T00820012
KTKV - Tomahawk Regnl, Wisconsin, USA
Distance from station: ESE 46mi, 74km
Updated: 03/28/2020 1:15pm
Overcast
Overcast
 Wind from ENE
Wind: ENE 8 mph , 13 km/h, Gust: 16 mph , 26 km/h
Temperature: 43°F , 6°C
Wind Chill: 38°F , 3°C
Dew Point: 36°F , 2°C
Humidity: 76%
Barometer: 29.80 inHg , 1009.1 hPa
Clouds: Overcast
Visibility: 10 miles , 16 km
Cloud details: Overcast 2400 ft
2020/03/28 18:15 KTKV 281815Z AUTO 07007G14KT 030V100 10SM OVC024 06/02 A2980 RMK AO2 T00610015 PWINO